createdAt,value
2022-12-19T00:00:48.865Z,33.37
2022-12-19T00:03:18.281Z,39.27
2022-12-19T00:05:48.211Z,34.50
2022-12-19T00:08:18.985Z,34.17
2022-12-19T00:10:59.088Z,44.17
2022-12-19T00:13:38.098Z,36.53
2022-12-19T00:16:17.683Z,34.77
2022-12-19T00:18:50.895Z,35.43
2022-12-19T00:21:28.058Z,37.43
2022-12-19T00:23:58.979Z,36.30
2022-12-19T00:26:30.083Z,35.90
2022-12-19T00:29:03.335Z,34.47
2022-12-19T00:31:36.493Z,33.20
2022-12-19T00:34:05.246Z,37.00
2022-12-19T00:36:36.529Z,44.27
2022-12-19T00:39:08.793Z,31.80
2022-12-19T00:41:42.094Z,39.20
2022-12-19T00:44:15.101Z,33.23
2022-12-19T00:46:51.843Z,36.87
2022-12-19T00:49:22.660Z,36.43
2022-12-19T00:51:51.708Z,36.73
2022-12-19T00:54:23.150Z,37.00
2022-12-19T00:56:53.951Z,35.77
2022-12-19T00:59:26.740Z,38.10
2022-12-19T01:01:57.804Z,44.30
2022-12-19T01:04:29.076Z,44.57
2022-12-19T01:07:02.541Z,32.10
2022-12-19T01:09:35.437Z,40.37
2022-12-19T01:12:24.927Z,38.63
2022-12-19T01:15:02.898Z,38.27
2022-12-19T01:17:43.644Z,33.93
2022-12-19T01:20:16.235Z,34.37
2022-12-19T01:22:48.167Z,28.57
2022-12-19T01:25:20.679Z,39.27
2022-12-19T01:27:49.575Z,36.80
2022-12-19T01:30:18.993Z,29.37
2022-12-19T01:32:49.507Z,38.17
2022-12-19T01:35:22.108Z,31.30
2022-12-19T01:37:57.544Z,37.53
2022-12-19T01:40:39.543Z,43.40
2022-12-19T01:43:14.457Z,28.07
2022-12-19T01:45:46.077Z,41.40
2022-12-19T01:48:36.611Z,41.37
2022-12-19T01:51:15.425Z,31.67
2022-12-19T01:53:51.109Z,37.43
2022-12-19T01:56:26.886Z,34.23
2022-12-19T01:59:06.616Z,39.47
2022-12-19T02:01:43.384Z,37.07
2022-12-19T02:04:21.665Z,35.90
2022-12-19T02:06:56.033Z,32.03
2022-12-19T02:09:28.804Z,44.73
2022-12-19T02:12:02.701Z,36.27
2022-12-19T02:14:32.140Z,31.77
2022-12-19T02:17:12.574Z,36.17
2022-12-19T02:20:26.441Z,39.00
2022-12-19T02:23:30.818Z,35.53
2022-12-19T02:26:26.095Z,40.57
2022-12-19T02:29:48.954Z,24.20
2022-12-19T02:32:27.998Z,34.10
2022-12-19T02:35:09.169Z,40.47
2022-12-19T02:37:52.475Z,41.93
2022-12-19T02:40:28.306Z,36.90
2022-12-19T02:43:03.065Z,29.43
2022-12-19T02:45:37.967Z,35.80
2022-12-19T02:48:11.665Z,40.40
2022-12-19T02:50:47.991Z,26.93
2022-12-19T02:53:22.417Z,39.70
2022-12-19T02:56:12.398Z,31.70
2022-12-19T02:59:04.478Z,30.57
2022-12-19T03:01:49.477Z,39.90
2022-12-19T03:04:43.505Z,41.90
2022-12-19T03:07:30.204Z,35.83
2022-12-19T03:10:15.735Z,40.33
2022-12-19T03:12:55.070Z,28.20
2022-12-19T03:15:26.167Z,34.80
2022-12-19T03:18:02.344Z,32.57
2022-12-19T03:20:46.371Z,42.83
2022-12-19T03:23:17.079Z,32.60
2022-12-19T03:25:53.584Z,39.37
2022-12-19T03:28:35.594Z,32.80
2022-12-19T03:31:09.603Z,33.23
2022-12-19T03:33:44.640Z,32.37
2022-12-19T03:36:22.802Z,41.30
2022-12-19T03:38:53.253Z,32.73
2022-12-19T03:41:40.022Z,31.97
2022-12-19T03:44:12.465Z,42.67
2022-12-19T03:46:53.049Z,47.23
2022-12-19T03:49:23.076Z,34.20
2022-12-19T03:52:02.963Z,36.83
2022-12-19T03:54:38.546Z,35.80
2022-12-19T03:57:12.262Z,29.37
2022-12-19T03:59:51.034Z,35.23
2022-12-19T04:02:25.523Z,37.93
2022-12-19T04:05:02.565Z,46.37
2022-12-19T04:07:36.505Z,30.17
2022-12-19T04:10:12.601Z,43.23
2022-12-19T04:12:50.920Z,46.60
2022-12-19T04:15:26.917Z,33.97
2022-12-19T04:18:02.436Z,35.13
2022-12-19T04:20:33.446Z,38.27
2022-12-19T04:23:14.041Z,34.00
2022-12-19T04:25:50.482Z,40.97
2022-12-19T04:28:27.440Z,32.70
2022-12-19T04:30:57.554Z,35.73
2022-12-19T04:33:27.558Z,43.53
2022-12-19T04:35:57.322Z,31.50
2022-12-19T04:38:29.781Z,43.43
2022-12-19T04:41:00.367Z,33.90
2022-12-19T04:43:30.936Z,38.30
2022-12-19T04:46:00.161Z,42.00
2022-12-19T04:48:30.968Z,35.70
2022-12-19T04:51:00.627Z,41.87
2022-12-19T04:53:30.579Z,32.63
2022-12-19T04:56:03.537Z,37.30
2022-12-19T04:58:33.421Z,43.47
2022-12-19T05:01:04.765Z,42.97
2022-12-19T05:03:35.151Z,41.80
2022-12-19T05:06:11.651Z,36.53
2022-12-19T05:08:44.873Z,37.50
2022-12-19T05:11:19.755Z,39.27
2022-12-19T05:13:51.570Z,43.17
2022-12-19T05:16:22.272Z,34.33
2022-12-19T05:18:52.004Z,41.80
2022-12-19T05:21:21.298Z,40.90
2022-12-19T05:23:52.406Z,35.80
2022-12-19T05:26:22.529Z,37.10
2022-12-19T05:28:52.293Z,37.77
2022-12-19T05:31:24.001Z,40.07
2022-12-19T05:33:54.953Z,34.10
2022-12-19T05:36:30.725Z,30.67
2022-12-19T05:39:03.215Z,43.77
2022-12-19T05:41:33.433Z,38.17
2022-12-19T05:44:03.117Z,37.03
2022-12-19T05:46:31.956Z,39.70
2022-12-19T05:49:02.768Z,34.77
2022-12-19T05:51:33.408Z,37.43
2022-12-19T05:54:05.330Z,39.70
2022-12-19T05:56:34.295Z,40.20
2022-12-19T06:18:13.861Z,51.10
2022-12-19T06:20:44.116Z,44.67
2022-12-19T06:23:13.151Z,44.03
2022-12-19T06:25:43.498Z,44.03
2022-12-19T06:28:14.190Z,47.13
2022-12-19T06:30:44.223Z,42.40
2022-12-19T06:33:15.776Z,35.90
2022-12-19T06:35:46.640Z,39.00
2022-12-19T06:38:15.910Z,37.77
2022-12-19T06:41:03.589Z,41.07
2022-12-19T06:43:32.786Z,34.47
2022-12-19T06:46:02.822Z,42.13
2022-12-19T06:48:35.055Z,50.67
2022-12-19T06:51:04.391Z,41.27
2022-12-19T06:53:34.572Z,40.33
2022-12-19T06:56:05.899Z,41.97
2022-12-19T06:58:36.366Z,45.77
2022-12-19T07:01:06.592Z,33.60
2022-12-19T07:03:42.988Z,39.73
2022-12-19T07:06:13.600Z,42.37
2022-12-19T07:08:45.176Z,34.07
2022-12-19T07:11:14.236Z,36.27
2022-12-19T07:13:42.759Z,35.30
2022-12-19T07:16:13.038Z,45.03
2022-12-19T07:18:44.841Z,43.60
2022-12-19T07:21:15.433Z,46.97
2022-12-19T07:23:46.005Z,40.00
2022-12-19T07:26:15.421Z,38.40
2022-12-19T07:28:46.434Z,40.67
2022-12-19T07:31:17.751Z,35.57
2022-12-19T07:33:48.798Z,36.50
2022-12-19T07:36:18.968Z,46.63
2022-12-19T07:38:49.050Z,43.80
2022-12-19T07:41:18.630Z,37.20
2022-12-19T07:43:48.333Z,38.53
2022-12-19T07:46:17.321Z,39.60
2022-12-19T07:48:48.494Z,46.30
2022-12-19T07:51:18.653Z,38.57
2022-12-19T07:53:49.808Z,39.23
2022-12-19T07:56:20.483Z,35.80
2022-12-19T07:58:50.174Z,38.73
2022-12-19T08:01:21.381Z,37.30
2022-12-19T08:03:53.476Z,47.00
2022-12-19T08:06:22.757Z,42.20
2022-12-19T08:08:53.020Z,40.13
2022-12-19T08:11:28.118Z,42.60
2022-12-19T08:13:58.911Z,42.13
2022-12-19T08:16:29.696Z,34.17
2022-12-19T08:19:00.239Z,37.57
2022-12-19T08:21:31.127Z,48.60
2022-12-19T08:24:01.492Z,32.17
2022-12-19T08:26:38.318Z,37.20
2022-12-19T08:29:10.798Z,40.67
2022-12-19T08:31:40.836Z,43.37
2022-12-19T08:34:13.287Z,33.70
2022-12-19T08:36:43.965Z,49.17
2022-12-19T08:39:13.070Z,37.37
2022-12-19T08:41:43.392Z,42.17
2022-12-19T08:44:14.070Z,43.30
2022-12-19T08:46:49.780Z,49.73
2022-12-19T08:49:22.221Z,41.90
2022-12-19T08:51:52.740Z,45.93
2022-12-19T08:54:22.786Z,44.53
2022-12-19T08:56:53.718Z,37.83
2022-12-19T08:59:30.915Z,39.47
2022-12-19T09:02:02.147Z,50.73
2022-12-19T09:05:07.364Z,52.57
2022-12-19T09:07:24.007Z,44.23
2022-12-19T09:09:54.684Z,38.80
2022-12-19T09:12:24.199Z,43.80
2022-12-19T09:14:54.179Z,46.40
2022-12-19T09:17:23.194Z,43.83
2022-12-19T09:19:55.663Z,42.57
2022-12-19T09:22:29.174Z,42.80
2022-12-19T09:24:59.589Z,42.53
2022-12-19T09:27:29.107Z,41.70
2022-12-19T09:29:57.707Z,47.47
2022-12-19T09:32:27.709Z,41.53
2022-12-19T09:34:59.996Z,37.60
2022-12-19T09:37:29.737Z,42.73
2022-12-19T09:40:00.508Z,39.20
2022-12-19T09:42:58.396Z,40.47
2022-12-19T09:46:04.300Z,39.90
2022-12-19T09:48:34.960Z,33.83
2022-12-19T09:51:13.761Z,47.97
2022-12-19T09:54:00.292Z,35.67
2022-12-19T09:56:45.695Z,34.07
2022-12-19T09:59:31.810Z,43.17
2022-12-19T10:02:52.491Z,36.83
2022-12-19T10:06:48.616Z,36.57
2022-12-19T10:08:32.438Z,35.67
2022-12-19T10:12:40.545Z,38.40
2022-12-19T10:14:24.045Z,43.57
2022-12-19T10:17:29.113Z,45.97
2022-12-19T10:20:28.669Z,39.93
2022-12-19T10:23:18.658Z,32.67
2022-12-19T10:26:09.778Z,38.70
2022-12-19T10:29:00.848Z,48.10
2022-12-19T10:31:38.445Z,39.37
2022-12-19T10:34:21.796Z,49.90
2022-12-19T10:37:21.460Z,41.60
2022-12-19T10:40:05.161Z,41.80
2022-12-19T10:42:52.568Z,45.43
2022-12-19T10:45:26.116Z,45.00
2022-12-19T10:47:59.884Z,45.90
2022-12-19T10:50:32.226Z,44.93
2022-12-19T10:53:11.977Z,43.10
2022-12-19T10:55:48.384Z,41.13
2022-12-19T10:58:28.641Z,39.80
2022-12-19T11:01:14.154Z,38.63
2022-12-19T11:03:46.875Z,43.07
2022-12-19T11:06:47.367Z,46.30
2022-12-19T11:09:41.071Z,43.00
2022-12-19T11:17:15.462Z,43.70
2022-12-19T11:23:33.495Z,42.63
2022-12-19T11:27:03.005Z,37.97
2022-12-19T11:29:39.897Z,37.80
2022-12-19T11:29:39.899Z,45.70
2022-12-19T11:30:47.660Z,47.70
2022-12-19T11:32:46.237Z,39.43
2022-12-19T11:35:24.711Z,41.90
2022-12-19T11:37:59.426Z,53.20
2022-12-19T11:40:41.757Z,48.30
2022-12-19T11:43:43.597Z,41.00
2022-12-19T11:46:31.507Z,42.77
2022-12-19T11:49:12.975Z,38.93
2022-12-19T11:51:52.561Z,39.37
2022-12-19T11:54:32.772Z,40.00
2022-12-19T11:57:03.774Z,42.83
2022-12-19T11:59:38.760Z,43.77
2022-12-19T12:02:49.634Z,45.70
2022-12-19T12:06:04.841Z,49.70
2022-12-19T12:12:22.429Z,45.03
2022-12-19T12:20:57.685Z,44.23
2022-12-19T12:27:17.361Z,44.43
2022-12-19T12:31:04.928Z,59.23
2022-12-19T12:31:12.176Z,36.27
2022-12-19T12:31:47.729Z,42.33
2022-12-19T12:31:48.345Z,40.17
2022-12-19T12:32:02.267Z,45.40
2022-12-19T12:35:30.672Z,47.57
2022-12-19T12:40:10.760Z,43.83
2022-12-19T12:43:02.340Z,43.63
2022-12-19T12:45:41.444Z,49.77
2022-12-19T12:48:26.771Z,46.00
2022-12-19T12:51:01.148Z,40.93
2022-12-19T12:53:38.560Z,45.30
2022-12-19T12:56:14.210Z,43.83
2022-12-19T12:59:20.320Z,41.47
2022-12-19T13:01:55.135Z,42.90
2022-12-19T13:04:35.476Z,43.47
2022-12-19T13:07:26.932Z,48.80
2022-12-19T13:10:19.875Z,43.53
2022-12-19T13:13:02.932Z,45.70
2022-12-19T13:15:51.646Z,43.20
2022-12-19T13:18:39.957Z,41.90
2022-12-19T13:21:13.756Z,47.20
2022-12-19T13:23:50.449Z,43.10
2022-12-19T13:26:51.338Z,45.53
2022-12-19T13:29:55.666Z,41.83
2022-12-19T13:32:27.779Z,41.43
2022-12-19T13:35:07.052Z,50.43
2022-12-19T13:39:50.343Z,42.17
2022-12-19T13:41:02.055Z,44.07
2022-12-19T13:43:48.310Z,37.47
2022-12-19T13:46:38.489Z,44.10
2022-12-19T13:49:14.614Z,44.17
2022-12-19T13:51:50.216Z,41.23
2022-12-19T13:54:26.176Z,34.10
2022-12-19T13:56:57.385Z,41.23
2022-12-19T13:59:35.357Z,51.40
2022-12-19T14:02:18.214Z,40.20
2022-12-19T14:04:48.517Z,40.43
2022-12-19T14:07:37.405Z,49.97
2022-12-19T14:11:32.204Z,37.70
2022-12-19T14:13:44.427Z,40.03
2022-12-19T14:16:21.624Z,37.93
2022-12-19T14:19:05.405Z,42.10
2022-12-19T14:22:04.658Z,36.13
2022-12-19T14:24:27.331Z,42.20
2022-12-19T14:28:21.292Z,36.33
2022-12-19T14:30:30.131Z,36.60
2022-12-19T14:33:46.857Z,39.23
2022-12-19T14:36:12.419Z,42.67
2022-12-19T14:39:25.379Z,46.10
2022-12-19T14:42:01.798Z,40.50
2022-12-19T14:53:34.272Z,42.13
2022-12-19T14:54:08.902Z,41.33
2022-12-19T14:54:34.136Z,43.10
2022-12-19T14:54:40.044Z,43.17
2022-12-19T14:56:43.749Z,35.83
2022-12-19T14:59:31.534Z,44.37
2022-12-19T15:02:15.849Z,36.47
2022-12-19T15:05:09.815Z,46.77
2022-12-19T15:07:47.831Z,40.20
2022-12-19T15:11:07.819Z,45.63
2022-12-19T15:14:56.644Z,38.13
2022-12-19T15:16:29.097Z,40.10
2022-12-19T15:19:01.011Z,38.67
2022-12-19T15:21:33.291Z,37.10
2022-12-19T15:24:03.558Z,40.97
2022-12-19T15:26:36.935Z,36.90
2022-12-19T15:29:21.477Z,41.40
2022-12-19T15:31:51.614Z,35.50
2022-12-19T15:34:51.967Z,35.77
2022-12-19T15:37:18.061Z,35.10
2022-12-19T15:39:49.329Z,43.03
2022-12-19T15:42:24.765Z,41.20
2022-12-19T15:44:58.768Z,38.67
2022-12-19T15:47:34.976Z,40.50
2022-12-19T15:50:17.591Z,39.50
2022-12-19T15:52:49.606Z,42.63
2022-12-19T15:55:22.851Z,38.73
2022-12-19T15:57:57.595Z,44.27
2022-12-19T16:00:31.318Z,38.03
2022-12-19T16:05:52.397Z,38.17
2022-12-19T16:08:26.962Z,33.60
2022-12-19T16:11:02.041Z,36.90
2022-12-19T16:13:36.518Z,40.30
2022-12-19T16:16:15.060Z,44.53
2022-12-19T16:18:46.412Z,37.20
2022-12-19T16:21:29.629Z,46.27
2022-12-19T16:24:06.012Z,42.03
2022-12-19T16:26:40.162Z,39.90
2022-12-19T16:29:20.532Z,44.87
2022-12-19T16:31:50.854Z,43.37
2022-12-19T16:34:23.696Z,41.77
2022-12-19T16:36:55.433Z,38.33
2022-12-19T16:39:25.333Z,38.83
2022-12-19T16:41:55.337Z,40.63
2022-12-19T16:44:25.574Z,41.40
2022-12-19T16:46:54.370Z,37.27
2022-12-19T16:49:24.154Z,35.07
2022-12-19T16:51:53.789Z,43.90
2022-12-19T16:54:23.743Z,37.07
2022-12-19T16:56:57.014Z,41.47
2022-12-19T16:59:33.188Z,40.80
2022-12-19T17:02:04.889Z,34.77
2022-12-19T17:04:34.356Z,42.47
2022-12-19T17:07:04.924Z,44.50
2022-12-19T17:09:34.469Z,38.27
2022-12-19T17:12:06.723Z,36.50
2022-12-19T17:14:36.364Z,41.17
2022-12-19T17:17:06.118Z,42.30
2022-12-19T17:19:42.824Z,48.30
2022-12-19T17:22:15.971Z,37.20
2022-12-19T17:24:49.479Z,41.97
2022-12-19T17:27:23.521Z,43.10
2022-12-19T17:29:52.913Z,35.63
2022-12-19T17:32:24.517Z,32.00
2022-12-19T17:34:55.575Z,40.73
2022-12-19T17:37:25.310Z,37.40
2022-12-19T17:39:55.539Z,41.33
2022-12-19T17:42:30.871Z,39.00
2022-12-19T17:45:04.795Z,45.93
2022-12-19T17:47:34.077Z,47.67
2022-12-19T17:50:03.468Z,36.97
2022-12-19T17:52:37.182Z,39.47
2022-12-19T17:55:22.537Z,40.70
2022-12-19T17:57:54.371Z,35.67
2022-12-19T18:00:30.601Z,41.70
2022-12-19T18:03:07.660Z,45.27
2022-12-19T18:05:39.176Z,42.20
2022-12-19T18:08:26.105Z,37.63
2022-12-19T18:10:58.155Z,32.57
2022-12-19T18:13:32.304Z,40.00
2022-12-19T18:16:04.164Z,36.57
2022-12-19T18:18:37.495Z,41.23
2022-12-19T18:21:07.527Z,36.17
2022-12-19T18:23:37.152Z,41.27
2022-12-19T18:26:08.643Z,40.17
2022-12-19T18:28:40.021Z,51.77
2022-12-19T18:31:18.025Z,43.17
2022-12-19T18:33:48.988Z,44.63
2022-12-19T18:36:23.571Z,33.37
2022-12-19T18:38:53.805Z,41.00
2022-12-19T18:41:23.355Z,40.20
2022-12-19T18:43:55.334Z,45.77
2022-12-19T18:46:29.639Z,38.27
2022-12-19T18:48:59.988Z,39.87
2022-12-19T18:51:30.304Z,37.33
2022-12-19T18:54:00.238Z,37.33
2022-12-19T18:56:29.153Z,39.70
2022-12-19T18:59:04.393Z,35.57
2022-12-19T19:01:34.873Z,39.70
2022-12-19T19:04:05.046Z,37.40
2022-12-19T19:06:38.237Z,41.70
2022-12-19T19:09:17.793Z,41.27
2022-12-19T19:11:48.485Z,43.33
2022-12-19T19:14:19.600Z,40.37
2022-12-19T19:16:49.896Z,34.90
2022-12-19T19:19:21.039Z,45.87
2022-12-19T19:21:51.298Z,37.80
2022-12-19T19:24:24.592Z,32.67
2022-12-19T19:26:53.685Z,41.20
2022-12-19T19:29:26.451Z,41.83
2022-12-19T19:31:57.165Z,38.20
2022-12-19T19:34:33.333Z,37.50
2022-12-19T19:37:08.673Z,43.03
2022-12-19T19:39:40.304Z,48.90
2022-12-19T19:42:09.711Z,65.43
2022-12-19T19:44:41.350Z,105.23
2022-12-19T19:47:11.723Z,139.67
2022-12-19T19:49:41.416Z,134.77
2022-12-19T19:52:10.868Z,125.37
2022-12-19T19:54:41.285Z,126.10
2022-12-19T19:57:10.941Z,105.73
2022-12-19T19:59:42.253Z,107.93
2022-12-19T20:02:12.382Z,114.90
2022-12-19T20:04:47.218Z,87.93
2022-12-19T20:07:17.342Z,67.47
2022-12-19T20:09:48.004Z,77.03
2022-12-19T20:12:17.069Z,75.50
2022-12-19T20:14:49.296Z,81.73
2022-12-19T20:17:18.937Z,78.70
2022-12-19T20:19:49.681Z,78.50
2022-12-19T20:22:18.614Z,73.13
2022-12-19T20:24:48.334Z,66.67
2022-12-19T20:27:18.338Z,63.17
2022-12-19T20:29:49.353Z,65.53
2022-12-19T20:32:19.130Z,70.20
2022-12-19T20:34:49.522Z,47.80
2022-12-19T20:37:19.614Z,60.93
2022-12-19T20:39:49.880Z,67.47
2022-12-19T20:42:19.588Z,58.43
2022-12-19T20:44:51.197Z,54.77
2022-12-19T20:47:20.756Z,52.70
2022-12-19T20:49:51.529Z,53.37
2022-12-19T20:52:22.138Z,48.67
2022-12-19T20:54:52.461Z,55.47
2022-12-19T20:57:21.730Z,50.70
2022-12-19T20:59:53.171Z,45.90
2022-12-19T21:02:23.028Z,46.13
2022-12-19T21:04:52.699Z,55.97
2022-12-19T21:07:23.306Z,48.40
2022-12-19T21:09:54.658Z,63.17
2022-12-19T21:12:23.724Z,64.07
2022-12-19T21:14:54.578Z,42.23
2022-12-19T21:17:24.065Z,44.67
2022-12-19T21:19:53.416Z,48.73
2022-12-19T21:22:23.214Z,47.17
2022-12-19T21:24:53.400Z,49.27
2022-12-19T21:27:22.891Z,44.90
2022-12-19T21:29:53.442Z,53.77
2022-12-19T21:32:22.760Z,41.13
2022-12-19T21:34:55.111Z,50.53
2022-12-19T21:37:24.351Z,40.97
2022-12-19T21:39:55.063Z,45.40
2022-12-19T21:42:25.533Z,48.43
2022-12-19T21:44:56.883Z,41.77
2022-12-19T21:47:26.313Z,51.13
2022-12-19T21:49:57.016Z,43.73
2022-12-19T21:52:25.502Z,45.80
2022-12-19T21:54:55.552Z,37.83
2022-12-19T21:57:26.273Z,44.70
2022-12-19T21:59:58.053Z,50.53
2022-12-19T22:02:27.233Z,49.17
2022-12-19T22:04:57.117Z,49.63
2022-12-19T22:07:26.829Z,44.73
2022-12-19T22:09:57.584Z,44.93
2022-12-19T22:12:27.547Z,44.03
2022-12-19T22:14:58.465Z,46.33
2022-12-19T22:17:28.054Z,45.83
2022-12-19T22:19:57.834Z,45.67
2022-12-19T22:22:27.469Z,43.13
2022-12-19T22:24:58.183Z,45.77
2022-12-19T22:27:27.312Z,43.77
2022-12-19T22:30:02.083Z,46.77
2022-12-19T22:32:35.299Z,47.50
2022-12-19T22:35:05.256Z,44.87
2022-12-19T22:37:36.007Z,45.43
2022-12-19T22:40:07.006Z,46.17
2022-12-19T22:42:36.896Z,38.83
2022-12-19T22:45:11.002Z,44.00
2022-12-19T22:47:44.581Z,39.50
2022-12-19T22:50:16.205Z,35.50
2022-12-19T22:52:46.028Z,43.63
2022-12-19T22:55:15.214Z,45.00
2022-12-19T22:57:45.541Z,45.43
2022-12-19T23:00:16.991Z,37.70
2022-12-19T23:02:47.908Z,41.27
2022-12-19T23:05:18.168Z,47.00
2022-12-19T23:07:47.209Z,40.87
2022-12-19T23:10:17.817Z,37.93
2022-12-19T23:12:46.768Z,35.30
2022-12-19T23:15:17.872Z,36.67
2022-12-19T23:17:47.029Z,34.00
2022-12-19T23:20:16.089Z,34.37
2022-12-19T23:22:45.971Z,32.50
2022-12-19T23:25:16.515Z,35.20
2022-12-19T23:27:47.295Z,32.07
2022-12-19T23:30:17.480Z,29.30
2022-12-19T23:32:50.786Z,31.43
2022-12-19T23:35:20.819Z,35.20
2022-12-19T23:37:50.961Z,35.53
2022-12-19T23:40:20.299Z,32.77
2022-12-19T23:42:49.474Z,29.67
2022-12-19T23:45:20.186Z,30.80
2022-12-19T23:47:50.212Z,29.57
2022-12-19T23:50:21.187Z,27.60
2022-12-19T23:52:50.529Z,23.17
2022-12-19T23:55:21.667Z,31.37
2022-12-19T23:57:51.652Z,31.43
